Terminal Aerodrome Forecast
Issued by NWS Wilmington, OH

Current Version | Previous Version | Text Only | Print | Product List | Glossary Off
Versions: 1 2 3 4 5 6 7 8 9 10 11 12 13 14 15 16 17 18 19 20 21 22 23 24

000
FTUS41 KILN 240856 AAB
TAFCVG
TAF AMD
KCVG 240856Z 2409/2512 08008KT P6SM -SHRA OVC040
     FM241200 08012KT 3SM -SHRA BR BKN015 OVC040
     FM241800 07012KT 5SM BR VCSH SCT009 OVC012
     FM242100 05008KT 5SM BR VCSH OVC009
     FM250200 01007KT P6SM OVC006=

USA.gov is the U.S. government's official web portal to all federal, state and local government web resources and services.